sensor_id;sensor_type;location;lat;lon;timestamp;pressure;altitude;pressure_sealevel;temperature;humidity
55468;BME280;41332;42.702;23.200;2022-12-05T00:01:24;94878.41;;;3.84;86.39
55468;BME280;41332;42.702;23.200;2022-12-05T00:03:52;94877.63;;;3.78;86.52
55468;BME280;41332;42.702;23.200;2022-12-05T00:06:18;94876.06;;;3.77;86.93
55468;BME280;41332;42.702;23.200;2022-12-05T00:08:44;94880.22;;;3.68;86.80
55468;BME280;41332;42.702;23.200;2022-12-05T00:11:19;94876.56;;;3.69;87.48
55468;BME280;41332;42.702;23.200;2022-12-05T00:13:45;94880.44;;;3.66;87.68
55468;BME280;41332;42.702;23.200;2022-12-05T00:16:16;94879.69;;;3.66;87.85
55468;BME280;41332;42.702;23.200;2022-12-05T00:18:42;94884.38;;;3.74;87.64
55468;BME280;41332;42.702;23.200;2022-12-05T00:21:14;94882.84;;;3.83;87.01
55468;BME280;41332;42.702;23.200;2022-12-05T00:23:40;94887.78;;;3.85;86.79
55468;BME280;41332;42.702;23.200;2022-12-05T00:26:06;94894.03;;;3.94;86.57
55468;BME280;41332;42.702;23.200;2022-12-05T00:28:32;94893.50;;;3.87;86.76
55468;BME280;41332;42.702;23.200;2022-12-05T00:31:03;94885.72;;;3.97;86.19
55468;BME280;41332;42.702;23.200;2022-12-05T00:33:29;94882.63;;;4.05;85.63
55468;BME280;41332;42.702;23.200;2022-12-05T00:35:54;94890.66;;;4.14;85.27
55468;BME280;41332;42.702;23.200;2022-12-05T00:38:19;94890.16;;;4.07;85.24
55468;BME280;41332;42.702;23.200;2022-12-05T00:40:45;94890.91;;;4.02;85.67
55468;BME280;41332;42.702;23.200;2022-12-05T00:43:10;94897.16;;;4.01;85.85
55468;BME280;41332;42.702;23.200;2022-12-05T00:45:35;94896.38;;;3.95;86.19
55468;BME280;41332;42.702;23.200;2022-12-05T00:48:01;94897.66;;;3.93;86.36
55468;BME280;41332;42.702;23.200;2022-12-05T00:50:26;94881.56;;;3.91;86.87
55468;BME280;41332;42.702;23.200;2022-12-05T00:52:51;94883.91;;;3.92;86.66
55468;BME280;41332;42.702;23.200;2022-12-05T00:55:17;94880.50;;;3.97;85.94
55468;BME280;41332;42.702;23.200;2022-12-05T00:57:42;94876.09;;;3.98;85.76
55468;BME280;41332;42.702;23.200;2022-12-05T01:00:08;94868.03;;;3.99;85.98
55468;BME280;41332;42.702;23.200;2022-12-05T01:02:33;94875.84;;;4.04;85.73
55468;BME280;41332;42.702;23.200;2022-12-05T01:04:59;94869.63;;;4.00;85.45
55468;BME280;41332;42.702;23.200;2022-12-05T01:07:24;94865.97;;;3.96;85.90
55468;BME280;41332;42.702;23.200;2022-12-05T01:09:50;94860.25;;;3.94;86.26
55468;BME280;41332;42.702;23.200;2022-12-05T01:12:15;94857.09;;;3.92;86.47
55468;BME280;41332;42.702;23.200;2022-12-05T01:14:40;94866.19;;;3.89;86.74
55468;BME280;41332;42.702;23.200;2022-12-05T01:17:06;94863.88;;;3.93;86.67
55468;BME280;41332;42.702;23.200;2022-12-05T01:19:32;94857.66;;;3.99;86.13
55468;BME280;41332;42.702;23.200;2022-12-05T01:21:58;94858.19;;;3.96;86.68
55468;BME280;41332;42.702;23.200;2022-12-05T01:24:24;94845.69;;;3.88;86.05
55468;BME280;41332;42.702;23.200;2022-12-05T01:26:50;94856.09;;;3.98;86.31
55468;BME280;41332;42.702;23.200;2022-12-05T01:29:17;94844.38;;;4.01;85.92
55468;BME280;41332;42.702;23.200;2022-12-05T01:31:43;94844.13;;;3.97;85.75
55468;BME280;41332;42.702;23.200;2022-12-05T01:34:13;94842.03;;;3.89;86.41
55468;BME280;41332;42.702;23.200;2022-12-05T01:36:40;94843.88;;;3.83;86.20
55468;BME280;41332;42.702;23.200;2022-12-05T01:39:06;94838.13;;;3.71;87.00
55468;BME280;41332;42.702;23.200;2022-12-05T01:41:35;94839.94;;;3.65;87.33
55468;BME280;41332;42.702;23.200;2022-12-05T01:44:04;94839.66;;;3.56;87.61
55468;BME280;41332;42.702;23.200;2022-12-05T01:46:36;94841.22;;;3.52;88.13
55468;BME280;41332;42.702;23.200;2022-12-05T01:49:22;94835.22;;;3.52;88.34
55468;BME280;41332;42.702;23.200;2022-12-05T01:51:52;94832.09;;;3.44;88.37
55468;BME280;41332;42.702;23.200;2022-12-05T01:54:21;94841.94;;;3.42;88.58
55468;BME280;41332;42.702;23.200;2022-12-05T01:56:58;94847.41;;;3.36;88.83
55468;BME280;41332;42.702;23.200;2022-12-05T01:59:26;94842.19;;;3.36;89.00
55468;BME280;41332;42.702;23.200;2022-12-05T02:01:52;94842.72;;;3.38;89.13
55468;BME280;41332;42.702;23.200;2022-12-05T02:04:18;94838.81;;;3.40;89.69
55468;BME280;41332;42.702;23.200;2022-12-05T02:06:44;94841.19;;;3.47;89.82
55468;BME280;41332;42.702;23.200;2022-12-05T02:09:10;94846.13;;;3.49;89.16
55468;BME280;41332;42.702;23.200;2022-12-05T02:11:54;94852.66;;;3.61;88.86
55468;BME280;41332;42.702;23.200;2022-12-05T02:16:56;94847.75;;;3.70;87.37
55468;BME280;41332;42.702;23.200;2022-12-05T02:25:23;94832.63;;;3.52;88.28
55468;BME280;41332;42.702;23.200;2022-12-05T02:28:02;94843.56;;;3.59;88.18
55468;BME280;41332;42.702;23.200;2022-12-05T02:30:41;94836.25;;;3.56;88.61
55468;BME280;41332;42.702;23.200;2022-12-05T02:33:21;94836.03;;;3.57;88.21
55468;BME280;41332;42.702;23.200;2022-12-05T02:41:23;94823.53;;;3.59;88.22
55468;BME280;41332;42.702;23.200;2022-12-05T02:44:07;94828.00;;;3.69;nan
55468;BME280;41332;42.702;23.200;2022-12-05T02:46:36;94822.78;;;3.69;88.21
55468;BME280;41332;42.702;23.200;2022-12-05T02:49:09;94833.47;;;3.73;87.95
55468;BME280;41332;42.702;23.200;2022-12-05T02:51:40;94833.97;;;3.75;88.03
55468;BME280;41332;42.702;23.200;2022-12-05T02:54:10;94828.50;;;3.87;88.10
55468;BME280;41332;42.702;23.200;2022-12-05T02:56:39;94835.03;;;4.00;87.27
55468;BME280;41332;42.702;23.200;2022-12-05T02:59:06;94830.09;;;3.98;86.24
55468;BME280;41332;42.702;23.200;2022-12-05T03:01:31;94822.03;;;4.00;86.56
55468;BME280;41332;42.702;23.200;2022-12-05T03:03:59;94824.88;;;4.08;85.93
55468;BME280;41332;42.702;23.200;2022-12-05T03:06:31;94823.31;;;4.07;86.07
55468;BME280;41332;42.702;23.200;2022-12-05T03:09:10;94827.22;;;4.15;85.99
55468;BME280;41332;42.702;23.200;2022-12-05T03:11:44;94820.47;;;4.19;85.86
55468;BME280;41332;42.702;23.200;2022-12-05T03:14:19;94825.41;;;4.26;85.31
55468;BME280;41332;42.702;23.200;2022-12-05T03:16:50;94824.34;;;4.27;85.84
55468;BME280;41332;42.702;23.200;2022-12-05T03:19:47;94828.00;;;4.31;85.48
55468;BME280;41332;42.702;23.200;2022-12-05T03:22:18;94827.22;;;4.36;85.66
55468;BME280;41332;42.702;23.200;2022-12-05T03:24:44;94833.69;;;4.43;85.33
55468;BME280;41332;42.702;23.200;2022-12-05T03:27:30;94841.00;;;4.47;85.53
55468;BME280;41332;42.702;23.200;2022-12-05T03:30:12;94836.56;;;4.42;85.15
55468;BME280;41332;42.702;23.200;2022-12-05T03:32:47;94830.84;;;4.29;85.19
55468;BME280;41332;42.702;23.200;2022-12-05T03:35:23;94836.84;;;4.30;85.39
55468;BME280;41332;42.702;23.200;2022-12-05T03:37:55;94838.41;;;4.41;84.94
55468;BME280;41332;42.702;23.200;2022-12-05T03:40:33;94840.72;;;4.48;84.67
55468;BME280;41332;42.702;23.200;2022-12-05T03:46:08;94833.69;;;4.49;83.45
55468;BME280;41332;42.702;23.200;2022-12-05T03:48:39;94829.28;;;4.44;83.70
55468;BME280;41332;42.702;23.200;2022-12-05T03:51:12;94833.19;;;4.41;84.16
55468;BME280;41332;42.702;23.200;2022-12-05T03:53:44;94825.91;;;4.43;84.11
55468;BME280;41332;42.702;23.200;2022-12-05T03:56:16;94834.75;;;4.42;84.28
55468;BME280;41332;42.702;23.200;2022-12-05T03:58:53;94826.44;;;4.35;84.07
55468;BME280;41332;42.702;23.200;2022-12-05T04:01:22;94831.13;;;4.28;84.71
55468;BME280;41332;42.702;23.200;2022-12-05T04:03:55;94832.16;;;4.27;84.58
55468;BME280;41332;42.702;23.200;2022-12-05T04:06:25;94823.84;;;4.25;85.05
55468;BME280;41332;42.702;23.200;2022-12-05T04:08:57;94827.22;;;4.31;85.19
55468;BME280;41332;42.702;23.200;2022-12-05T04:11:26;94816.53;;;4.32;84.77
55468;BME280;41332;42.702;23.200;2022-12-05T04:14:14;94815.00;;;4.31;84.89
55468;BME280;41332;42.702;23.200;2022-12-05T04:16:53;94809.00;;;4.25;85.13
55468;BME280;41332;42.702;23.200;2022-12-05T04:19:40;94813.19;;;4.21;85.05
55468;BME280;41332;42.702;23.200;2022-12-05T04:22:26;94812.66;;;4.09;85.54
55468;BME280;41332;42.702;23.200;2022-12-05T04:24:54;94818.66;;;4.15;86.04
55468;BME280;41332;42.702;23.200;2022-12-05T04:27:47;94815.50;;;4.23;85.36
55468;BME280;41332;42.702;23.200;2022-12-05T04:30:18;94813.44;;;4.25;85.57
55468;BME280;41332;42.702;23.200;2022-12-05T04:32:49;94819.69;;;4.29;85.16
55468;BME280;41332;42.702;23.200;2022-12-05T04:35:22;94820.22;;;4.31;85.10
55468;BME280;41332;42.702;23.200;2022-12-05T04:37:51;94815.50;;;4.33;85.07
55468;BME280;41332;42.702;23.200;2022-12-05T04:40:23;94820.97;;;4.37;85.38
55468;BME280;41332;42.702;23.200;2022-12-05T04:42:53;94819.41;;;4.41;85.28
55468;BME280;41332;42.702;23.200;2022-12-05T04:45:21;94824.84;;;4.50;84.81
55468;BME280;41332;42.702;23.200;2022-12-05T04:47:57;94827.19;;;4.51;84.63
55468;BME280;41332;42.702;23.200;2022-12-05T04:50:27;94826.69;;;4.49;84.18
55468;BME280;41332;42.702;23.200;2022-12-05T04:52:56;94818.63;;;4.45;84.09
55468;BME280;41332;42.702;23.200;2022-12-05T04:55:24;94820.69;;;4.49;83.90
55468;BME280;41332;42.702;23.200;2022-12-05T05:00:27;94825.91;;;4.49;83.81
55468;BME280;41332;42.702;23.200;2022-12-05T05:03:13;94829.28;;;4.54;84.28
55468;BME280;41332;42.702;23.200;2022-12-05T05:05:44;94840.19;;;4.56;83.93
55468;BME280;41332;42.702;23.200;2022-12-05T05:08:17;94832.13;;;4.53;84.04
55468;BME280;41332;42.702;23.200;2022-12-05T05:10:53;94846.44;;;4.50;83.89
55468;BME280;41332;42.702;23.200;2022-12-05T05:13:21;94836.81;;;4.51;84.27
55468;BME280;41332;42.702;23.200;2022-12-05T05:15:46;94849.56;;;4.57;84.34
55468;BME280;41332;42.702;23.200;2022-12-05T05:18:12;94850.31;;;4.63;84.25
55468;BME280;41332;42.702;23.200;2022-12-05T05:20:37;94850.84;;;4.65;84.49
55468;BME280;41332;42.702;23.200;2022-12-05T05:23:03;94847.72;;;4.68;83.67
55468;BME280;41332;42.702;23.200;2022-12-05T05:25:28;94855.78;;;4.67;83.55
55468;BME280;41332;42.702;23.200;2022-12-05T05:27:55;94855.78;;;4.67;83.42
55468;BME280;41332;42.702;23.200;2022-12-05T05:30:22;94857.34;;;4.68;83.39
55468;BME280;41332;42.702;23.200;2022-12-05T05:32:48;94850.84;;;4.70;83.64
55468;BME280;41332;42.702;23.200;2022-12-05T05:35:14;94858.91;;;4.79;83.56
55468;BME280;41332;42.702;23.200;2022-12-05T05:37:40;94862.78;;;4.82;83.31
55468;BME280;41332;42.702;23.200;2022-12-05T05:40:09;94862.00;;;4.81;83.34
55468;BME280;41332;42.702;23.200;2022-12-05T05:42:35;94858.34;;;4.82;83.81
55468;BME280;41332;42.702;23.200;2022-12-05T05:45:01;94860.41;;;4.85;83.48
55468;BME280;41332;42.702;23.200;2022-12-05T05:47:26;94868.75;;;4.92;83.41
55468;BME280;41332;42.702;23.200;2022-12-05T05:49:53;94870.03;;;4.95;82.97
55468;BME280;41332;42.702;23.200;2022-12-05T05:52:18;94872.91;;;4.93;82.45
55468;BME280;41332;42.702;23.200;2022-12-05T05:54:43;94873.41;;;5.01;82.58
55468;BME280;41332;42.702;23.200;2022-12-05T05:57:09;94870.78;;;5.01;82.43
55468;BME280;41332;42.702;23.200;2022-12-05T05:59:34;94871.31;;;5.03;82.23
55468;BME280;41332;42.702;23.200;2022-12-05T06:02:00;94877.06;;;5.05;82.98
55468;BME280;41332;42.702;23.200;2022-12-05T06:04:25;94875.75;;;5.02;82.74
55468;BME280;41332;42.702;23.200;2022-12-05T06:06:50;94878.91;;;4.89;82.71
55468;BME280;41332;42.702;23.200;2022-12-05T06:09:16;94871.91;;;4.89;82.83
55468;BME280;41332;42.702;23.200;2022-12-05T06:11:41;94881.78;;;4.87;82.76
55468;BME280;41332;42.702;23.200;2022-12-05T06:14:07;94870.59;;;4.82;83.20
55468;BME280;41332;42.702;23.200;2022-12-05T06:16:33;94876.31;;;4.78;82.79
55468;BME280;41332;42.702;23.200;2022-12-05T06:18:58;94877.34;;;4.77;82.78
55468;BME280;41332;42.702;23.200;2022-12-05T06:21:23;94872.16;;;4.83;83.07
55468;BME280;41332;42.702;23.200;2022-12-05T06:23:49;94873.44;;;4.85;82.67
55468;BME280;41332;42.702;23.200;2022-12-05T06:26:17;94879.19;;;4.82;82.24
55468;BME280;41332;42.702;23.200;2022-12-05T06:28:42;94870.59;;;4.82;82.47
55468;BME280;41332;42.702;23.200;2022-12-05T06:31:14;94882.81;;;4.86;82.06
55468;BME280;41332;42.702;23.200;2022-12-05T06:33:40;94883.84;;;4.85;82.12
55468;BME280;41332;42.702;23.200;2022-12-05T06:36:08;94891.19;;;4.73;82.26
55468;BME280;41332;42.702;23.200;2022-12-05T06:38:34;94888.03;;;4.76;82.75
55468;BME280;41332;42.702;23.200;2022-12-05T06:41:04;94884.66;;;4.75;82.70
55468;BME280;41332;42.702;23.200;2022-12-05T06:43:29;94889.88;;;4.75;82.83
55468;BME280;41332;42.702;23.200;2022-12-05T06:45:55;94884.94;;;4.79;82.63
55468;BME280;41332;42.702;23.200;2022-12-05T06:48:21;94881.03;;;4.82;82.87
55468;BME280;41332;42.702;23.200;2022-12-05T06:50:48;94884.13;;;4.84;83.04
55468;BME280;41332;42.702;23.200;2022-12-05T06:53:14;94886.72;;;4.84;82.56
55468;BME280;41332;42.702;23.200;2022-12-05T06:55:39;94890.91;;;4.79;82.64
55468;BME280;41332;42.702;23.200;2022-12-05T06:58:05;94886.22;;;4.76;83.00
55468;BME280;41332;42.702;23.200;2022-12-05T07:00:30;94892.97;;;4.83;83.10
55468;BME280;41332;42.702;23.200;2022-12-05T07:03:14;94894.53;;;4.84;82.81
55468;BME280;41332;42.702;23.200;2022-12-05T07:05:39;94890.13;;;4.84;82.47
55468;BME280;41332;42.702;23.200;2022-12-05T07:08:05;94898.16;;;4.83;82.51
55468;BME280;41332;42.702;23.200;2022-12-05T07:10:30;94890.38;;;4.72;83.11
55468;BME280;41332;42.702;23.200;2022-12-05T07:12:55;94902.09;;;4.75;83.16
55468;BME280;41332;42.702;23.200;2022-12-05T07:15:24;94902.34;;;4.84;83.22
55468;BME280;41332;42.702;23.200;2022-12-05T07:17:49;94900.78;;;4.88;83.21
55468;BME280;41332;42.702;23.200;2022-12-05T07:20:14;94898.69;;;4.90;83.29
55468;BME280;41332;42.702;23.200;2022-12-05T07:22:42;94905.19;;;4.98;82.58
55468;BME280;41332;42.702;23.200;2022-12-05T07:25:08;94893.72;;;4.99;82.03
55468;BME280;41332;42.702;23.200;2022-12-05T07:27:33;94901.81;;;5.02;82.06
55468;BME280;41332;42.702;23.200;2022-12-05T07:29:59;94902.03;;;5.01;81.86
55468;BME280;41332;42.702;23.200;2022-12-05T07:32:24;94899.69;;;5.04;81.98
55468;BME280;41332;42.702;23.200;2022-12-05T07:34:50;94897.63;;;5.01;81.74
55468;BME280;41332;42.702;23.200;2022-12-05T07:37:15;94899.44;;;5.01;82.08
55468;BME280;41332;42.702;23.200;2022-12-05T07:39:41;94906.47;;;5.00;82.39
55468;BME280;41332;42.702;23.200;2022-12-05T07:42:06;94908.06;;;5.01;82.54
55468;BME280;41332;42.702;23.200;2022-12-05T07:44:32;94904.41;;;5.07;82.57
55468;BME280;41332;42.702;23.200;2022-12-05T07:46:57;94905.16;;;5.08;81.47
55468;BME280;41332;42.702;23.200;2022-12-05T07:49:23;94907.00;;;5.07;82.31
55468;BME280;41332;42.702;23.200;2022-12-05T07:51:49;94898.13;;;5.03;82.24
55468;BME280;41332;42.702;23.200;2022-12-05T07:54:14;94905.94;;;5.03;82.26
55468;BME280;41332;42.702;23.200;2022-12-05T07:56:40;94905.94;;;5.08;82.48
55468;BME280;41332;42.702;23.200;2022-12-05T07:59:05;94903.31;;;5.08;82.35
55468;BME280;41332;42.702;23.200;2022-12-05T08:01:30;94906.75;;;5.04;82.54
55468;BME280;41332;42.702;23.200;2022-12-05T08:03:57;94906.75;;;4.99;82.53
55468;BME280;41332;42.702;23.200;2022-12-05T08:06:26;94916.66;;;4.91;82.65
55468;BME280;41332;42.702;23.200;2022-12-05T08:08:53;94914.03;;;4.91;82.86
55468;BME280;41332;42.702;23.200;2022-12-05T08:11:27;94912.25;;;4.87;82.21
55468;BME280;41332;42.702;23.200;2022-12-05T08:13:54;94918.50;;;4.75;82.63
55468;BME280;41332;42.702;23.200;2022-12-05T08:16:23;94915.91;;;4.65;83.06
55468;BME280;41332;42.702;23.200;2022-12-05T08:18:48;94910.16;;;4.68;83.34
55468;BME280;41332;42.702;23.200;2022-12-05T08:21:16;94917.75;;;4.59;83.75
55468;BME280;41332;42.702;23.200;2022-12-05T08:23:41;94912.00;;;4.52;84.26
55468;BME280;41332;42.702;23.200;2022-12-05T08:26:19;94908.38;;;4.48;84.14
55468;BME280;41332;42.702;23.200;2022-12-05T08:28:45;94909.94;;;4.54;83.64
55468;BME280;41332;42.702;23.200;2022-12-05T08:31:15;94909.41;;;4.57;84.44
55468;BME280;41332;42.702;23.200;2022-12-05T08:33:42;94910.97;;;4.53;84.66
55468;BME280;41332;42.702;23.200;2022-12-05T08:36:10;94914.09;;;4.50;84.65
55468;BME280;41332;42.702;23.200;2022-12-05T08:38:36;94900.56;;;4.58;83.76
55468;BME280;41332;42.702;23.200;2022-12-05T08:41:04;94903.16;;;4.53;83.78
55468;BME280;41332;42.702;23.200;2022-12-05T08:43:30;94908.09;;;4.55;84.40
55468;BME280;41332;42.702;23.200;2022-12-05T08:45:58;94904.47;;;4.61;84.66
55468;BME280;41332;42.702;23.200;2022-12-05T08:48:24;94910.72;;;4.65;84.46
55468;BME280;41332;42.702;23.200;2022-12-05T08:50:50;94912.50;;;4.70;83.92
55468;BME280;41332;42.702;23.200;2022-12-05T08:53:15;94914.06;;;4.66;84.55
55468;BME280;41332;42.702;23.200;2022-12-05T08:55:41;94919.00;;;4.77;84.00
55468;BME280;41332;42.702;23.200;2022-12-05T08:58:06;94913.28;;;4.81;83.91
55468;BME280;41332;42.702;23.200;2022-12-05T09:00:32;94908.59;;;4.83;83.34
55468;BME280;41332;42.702;23.200;2022-12-05T09:02:58;94909.66;;;4.71;83.54
55468;BME280;41332;42.702;23.200;2022-12-05T09:05:24;94906.78;;;4.73;83.45
55468;BME280;41332;42.702;23.200;2022-12-05T09:07:49;94926.31;;;4.81;83.29
55468;BME280;41332;42.702;23.200;2022-12-05T09:10:15;94923.69;;;4.86;82.27
55468;BME280;41332;42.702;23.200;2022-12-05T09:12:40;94902.88;;;4.81;83.10
55468;BME280;41332;42.702;23.200;2022-12-05T09:15:07;94908.56;;;4.88;82.59
55468;BME280;41332;42.702;23.200;2022-12-05T09:17:33;94908.06;;;4.91;82.36
55468;BME280;41332;42.702;23.200;2022-12-05T09:19:59;94899.44;;;4.95;83.36
55468;BME280;41332;42.702;23.200;2022-12-05T09:22:24;94899.44;;;5.01;83.18
55468;BME280;41332;42.702;23.200;2022-12-05T09:24:50;94900.72;;;5.08;82.06
55468;BME280;41332;42.702;23.200;2022-12-05T09:27:15;94902.81;;;5.06;81.96
55468;BME280;41332;42.702;23.200;2022-12-05T09:29:40;94897.59;;;5.11;81.06
55468;BME280;41332;42.702;23.200;2022-12-05T09:32:07;94892.13;;;5.13;81.90
55468;BME280;41332;42.702;23.200;2022-12-05T09:34:32;94894.72;;;5.13;81.92
55468;BME280;41332;42.702;23.200;2022-12-05T09:36:59;94891.34;;;5.18;81.01
55468;BME280;41332;42.702;23.200;2022-12-05T09:39:26;94886.66;;;5.15;81.31
55468;BME280;41332;42.702;23.200;2022-12-05T09:44:47;94884.00;;;5.30;81.62
55468;BME280;41332;42.702;23.200;2022-12-05T09:49:53;94876.44;;;5.28;81.07
55468;BME280;41332;42.702;23.200;2022-12-05T09:52:27;94870.19;;;5.35;81.31
55468;BME280;41332;42.702;23.200;2022-12-05T09:54:53;94878.78;;;5.30;81.20
55468;BME280;41332;42.702;23.200;2022-12-05T09:57:31;94873.13;;;5.18;81.67
55468;BME280;41332;42.702;23.200;2022-12-05T09:59:59;94872.56;;;5.26;81.15
55468;BME280;41332;42.702;23.200;2022-12-05T10:02:43;94859.78;;;5.24;80.95
55468;BME280;41332;42.702;23.200;2022-12-05T10:05:28;94867.34;;;5.26;80.89
55468;BME280;41332;42.702;23.200;2022-12-05T10:16:02;94861.41;;;5.15;81.80
55468;BME280;41332;42.702;23.200;2022-12-05T10:18:49;94860.34;;;5.11;82.34
55468;BME280;41332;42.702;23.200;2022-12-05T10:21:21;94859.81;;;5.19;82.98
55468;BME280;41332;42.702;23.200;2022-12-05T10:23:55;94852.00;;;5.19;82.71
55468;BME280;41332;42.702;23.200;2022-12-05T10:26:24;94855.59;;;5.28;81.49
55468;BME280;41332;42.702;23.200;2022-12-05T10:31:24;94855.91;;;5.22;81.21
55468;BME280;41332;42.702;23.200;2022-12-05T10:33:57;94842.06;;;5.26;82.34
55468;BME280;41332;42.702;23.200;2022-12-05T10:36:25;94850.91;;;5.31;81.76
55468;BME280;41332;42.702;23.200;2022-12-05T10:38:51;94837.06;;;5.35;81.06
55468;BME280;41332;42.702;23.200;2022-12-05T10:41:16;94836.59;;;5.28;81.14
55468;BME280;41332;42.702;23.200;2022-12-05T10:43:43;94828.00;;;5.27;81.57
55468;BME280;41332;42.702;23.200;2022-12-05T10:46:12;94829.84;;;5.27;81.87
55468;BME280;41332;42.702;23.200;2022-12-05T10:48:40;94834.72;;;5.39;80.20
55468;BME280;41332;42.702;23.200;2022-12-05T10:51:13;94835.19;;;5.46;81.02
55468;BME280;41332;42.702;23.200;2022-12-05T10:53:47;94829.50;;;5.39;80.30
55468;BME280;41332;42.702;23.200;2022-12-05T10:56:43;94834.41;;;5.51;80.29
55468;BME280;41332;42.702;23.200;2022-12-05T10:59:15;94831.28;;;5.43;80.49
55468;BME280;41332;42.702;23.200;2022-12-05T11:01:53;94826.59;;;5.45;80.73
55468;BME280;41332;42.702;23.200;2022-12-05T11:04:30;94828.41;;;5.50;80.15
55468;BME280;41332;42.702;23.200;2022-12-05T11:07:01;94832.31;;;5.53;78.45
55468;BME280;41332;42.702;23.200;2022-12-05T11:09:36;94825.78;;;5.55;79.08
55468;BME280;41332;42.702;23.200;2022-12-05T11:12:16;94824.72;;;5.56;78.61
55468;BME280;41332;42.702;23.200;2022-12-05T11:17:37;94810.19;;;5.50;78.80
55468;BME280;41332;42.702;23.200;2022-12-05T11:22:53;94811.78;;;5.41;79.50
55468;BME280;41332;42.702;23.200;2022-12-05T11:27:56;94806.81;;;5.44;79.82
55468;BME280;41332;42.702;23.200;2022-12-05T11:30:23;94807.34;;;5.41;79.64
55468;BME280;41332;42.702;23.200;2022-12-05T11:33:10;94794.41;;;5.26;80.33
55468;BME280;41332;42.702;23.200;2022-12-05T11:35:36;94796.19;;;5.31;80.35
55468;BME280;41332;42.702;23.200;2022-12-05T11:38:03;94792.84;;;5.25;80.97
55468;BME280;41332;42.702;23.200;2022-12-05T11:40:33;94789.66;;;5.33;80.87
55468;BME280;41332;42.702;23.200;2022-12-05T11:49:22;94779.97;;;5.44;80.21
55468;BME280;41332;42.702;23.200;2022-12-05T11:57:07;94773.56;;;5.26;80.90
55468;BME280;41332;42.702;23.200;2022-12-05T12:10:59;94753.94;;;5.44;80.40
55468;BME280;41332;42.702;23.200;2022-12-05T12:26:16;94738.09;;;5.35;80.98
55468;BME280;41332;42.702;23.200;2022-12-05T12:40:13;94738.41;;;5.23;82.23
55468;BME280;41332;42.702;23.200;2022-12-05T12:50:50;94723.81;;;5.27;81.36
55468;BME280;41332;42.702;23.200;2022-12-05T12:56:19;94734.19;;;5.33;80.95
55468;BME280;41332;42.702;23.200;2022-12-05T13:04:24;94727.81;;;5.09;82.25
55468;BME280;41332;42.702;23.200;2022-12-05T13:06:59;94719.50;;;5.07;82.97
55468;BME280;41332;42.702;23.200;2022-12-05T13:09:35;94722.09;;;5.13;82.90
55468;BME280;41332;42.702;23.200;2022-12-05T13:12:17;94730.91;;;5.17;82.96
55468;BME280;41332;42.702;23.200;2022-12-05T13:15:05;94728.28;;;5.22;82.42
55468;BME280;41332;42.702;23.200;2022-12-05T13:17:32;94730.09;;;5.21;82.31
55468;BME280;41332;42.702;23.200;2022-12-05T13:19:58;94729.31;;;5.21;82.39
55468;BME280;41332;42.702;23.200;2022-12-05T13:22:26;94729.31;;;5.21;82.67
55468;BME280;41332;42.702;23.200;2022-12-05T13:24:53;94737.91;;;5.21;82.29
55468;BME280;41332;42.702;23.200;2022-12-05T13:27:21;94731.66;;;5.17;82.22
55468;BME280;41332;42.702;23.200;2022-12-05T13:30:03;94733.28;;;5.08;83.17
55468;BME280;41332;42.702;23.200;2022-12-05T13:32:37;94727.84;;;5.04;82.42
55468;BME280;41332;42.702;23.200;2022-12-05T13:38:29;94732.56;;;5.02;83.12
55468;BME280;41332;42.702;23.200;2022-12-05T13:41:14;94730.47;;;4.99;83.81
55468;BME280;41332;42.702;23.200;2022-12-05T13:43:59;94735.44;;;4.95;83.70
55468;BME280;41332;42.702;23.200;2022-12-05T13:46:31;94727.41;;;4.92;83.71
55468;BME280;41332;42.702;23.200;2022-12-05T13:49:04;94727.91;;;4.89;83.78
55468;BME280;41332;42.702;23.200;2022-12-05T13:51:36;94735.44;;;4.90;83.80
55468;BME280;41332;42.702;23.200;2022-12-05T13:56:55;94732.88;;;4.85;84.12
55468;BME280;41332;42.702;23.200;2022-12-05T14:12:50;94740.94;;;4.84;84.52
55468;BME280;41332;42.702;23.200;2022-12-05T14:15:28;94744.56;;;4.88;84.25
55468;BME280;41332;42.702;23.200;2022-12-05T14:17:58;94734.97;;;4.83;84.44
55468;BME280;41332;42.702;23.200;2022-12-05T14:23:15;94742.25;;;4.81;84.93
55468;BME280;41332;42.702;23.200;2022-12-05T14:28:51;94738.06;;;4.85;84.87
55468;BME280;41332;42.702;23.200;2022-12-05T14:34:36;94742.22;;;4.91;84.21
55468;BME280;41332;42.702;23.200;2022-12-05T14:37:28;94742.50;;;4.90;84.38
55468;BME280;41332;42.702;23.200;2022-12-05T14:39:57;94743.28;;;4.85;84.53
55468;BME280;41332;42.702;23.200;2022-12-05T14:47:52;94750.31;;;4.85;84.36
55468;BME280;41332;42.702;23.200;2022-12-05T14:50:35;94743.56;;;4.84;85.09
55468;BME280;41332;42.702;23.200;2022-12-05T14:56:10;94744.63;;;4.77;85.13
55468;BME280;41332;42.702;23.200;2022-12-05T15:01:47;94747.50;;;4.71;85.36
55468;BME280;41332;42.702;23.200;2022-12-05T15:04:30;94754.81;;;4.69;85.84
55468;BME280;41332;42.702;23.200;2022-12-05T15:07:03;94750.91;;;4.71;85.86
55468;BME280;41332;42.702;23.200;2022-12-05T15:12:40;94744.94;;;4.60;85.76
55468;BME280;41332;42.702;23.200;2022-12-05T15:29:04;94736.59;;;4.74;85.59
55468;BME280;41332;42.702;23.200;2022-12-05T15:31:36;94731.69;;;4.62;85.38
55468;BME280;41332;42.702;23.200;2022-12-05T15:34:13;94728.53;;;4.65;85.62
55468;BME280;41332;42.702;23.200;2022-12-05T15:36:46;94723.34;;;4.65;85.98
55468;BME280;41332;42.702;23.200;2022-12-05T15:39:20;94732.94;;;4.65;86.08
55468;BME280;41332;42.702;23.200;2022-12-05T15:41:53;94732.72;;;4.66;85.66
55468;BME280;41332;42.702;23.200;2022-12-05T15:44:20;94727.53;;;4.61;85.96
55468;BME280;41332;42.702;23.200;2022-12-05T15:46:54;94727.78;;;4.59;86.31
55468;BME280;41332;42.702;23.200;2022-12-05T15:51:54;94735.34;;;4.61;86.41
55468;BME280;41332;42.702;23.200;2022-12-05T15:54:31;94731.44;;;4.53;86.38
55468;BME280;41332;42.702;23.200;2022-12-05T15:57:05;94729.63;;;4.54;86.75
55468;BME280;41332;42.702;23.200;2022-12-05T15:59:44;94723.91;;;4.52;87.32
55468;BME280;41332;42.702;23.200;2022-12-05T16:02:18;94725.22;;;4.49;87.12